Ana Sayfa
METAR-TAF:

METAR-TAF

Havaalanları :

Chinandega, Nikaragua

Enlem: 12-38N, Boylam: 087-08W, yükseklik: 53 m

Güncel hava durumu gözlemi

Rapor saat 12:00 UTC de 56 dakika önce yapıldı.
Sakin rüzgar
Sıcaklık 24°C
Nem 100%
Basınç 1011 hPa
Görüş mesafesi 10 km veya daha fazla
2500 ft yükseklikte az bulutlu, Yükselen kümülüs.
9000 ft yükseklikte parçalı bulutlu

METAR: MNCH 291200Z 00000KT 9999 FEW025TCU SCT090 24/24 Q1011 TCU/NW

Saat: 06:56 (12:56 UTC)


TAF: eksik

4.000'den fazla havaalanı için hava durumu gözlemleri ve tahminleri (METAR ve TAF raporları).

Kullanılabilir istasyonlar harita üzerinde sarı ve kırmızı noktalarla gösterilir.

İstasyonun adını görmek için fareyi noktanın üzerinde gezdirin.

Sonrasında hava gözlem ve tahminlerini görmek için tıklayın.

Haritayı değiştirmek için: yaklaştırmak için siyah artı işaretli yeşil düğmeye ve uzaklaştırmak için de eksi işaretli düğmeye hızla tıklayın; bitişik haritalar için yeşil okları kullanın.


METAR-TAF: